Time;durP1;ratioP1;P1;durP2;ratioP2;P2;SDS_P1;SDS_P2;PMS_P1;PMS_P2;Temp;Humidity;BMP_temperature;BMP_pressure;BME280_temperature;BME280_humidity;BME280_pressure;Samples;Min_cycle;Max_cycle;Signal;HPM_P1;HPM_P2
2022/04/27 03:01:08;;;;;;;2.03;1.93;;;11.60;81.10;;;;;;5898344;23;20857;-78
2022/04/27 03:03:34;;;;;;;1.80;1.70;;;11.60;81.00;;;;;;5014137;28;20938;-78
2022/04/27 03:06:01;;;;;;;2.03;1.93;;;11.60;81.20;;;;;;5014072;28;20851;-78
2022/04/27 03:08:28;;;;;;;2.00;1.90;;;11.60;81.10;;;;;;5014255;28;20997;-78
2022/04/27 03:10:54;;;;;;;1.90;1.80;;;11.60;81.00;;;;;;5014318;28;20510;-78
2022/04/27 03:13:21;;;;;;;1.87;1.77;;;11.70;80.80;;;;;;5013890;28;20942;-78
2022/04/27 03:15:48;;;;;;;1.60;1.60;;;11.70;80.70;;;;;;5015533;28;20863;-78
2022/04/27 03:18:19;;;;;;;2.17;2.07;;;11.60;80.80;;;;;;5014205;28;20498;-78
2022/04/27 03:20:47;;;;;;;1.83;1.73;;;11.60;80.80;;;;;;5014452;28;20546;-76
2022/04/27 03:23:14;;;;;;;1.70;1.63;;;11.60;80.80;;;;;;5014407;28;20502;-76
2022/04/27 03:25:41;;;;;;;2.00;1.90;;;11.60;81.00;;;;;;5014377;28;20498;-76
2022/04/27 03:28:08;;;;;;;2.07;1.97;;;11.50;80.90;;;;;;5013885;28;20872;-76
2022/04/27 03:30:34;;;;;;;2.30;2.20;;;11.50;81.10;;;;;;5014012;28;20503;-75
2022/04/27 03:33:01;;;;;;;2.20;2.10;;;11.60;81.10;;;;;;5013679;28;20871;-75
2022/04/27 03:35:29;;;;;;;2.00;1.90;;;11.60;81.10;;;;;;5014360;28;20451;-76
2022/04/27 03:37:58;;;;;;;2.10;2.00;;;11.60;81.10;;;;;;5013860;28;20502;-76
2022/04/27 03:40:25;;;;;;;1.97;1.87;;;11.60;81.20;;;;;;5013688;28;20476;-75
2022/04/27 03:42:51;;;;;;;2.40;2.30;;;11.60;81.10;;;;;;5013931;28;20444;-76
2022/04/27 03:45:19;;;;;;;2.73;2.63;;;11.60;81.20;;;;;;5015633;28;20506;-77
2022/04/27 03:47:46;;;;;;;2.43;2.33;;;11.60;81.10;;;;;;5015725;28;20524;-75
2022/04/27 03:50:13;;;;;;;2.10;2.00;;;11.40;81.70;;;;;;5014575;28;20444;-76
2022/04/27 03:52:41;;;;;;;1.87;1.77;;;11.40;81.60;;;;;;5014273;28;20464;-76
2022/04/27 03:55:09;;;;;;;1.80;1.70;;;11.40;81.50;;;;;;5015132;28;20860;-78
2022/04/27 03:57:35;;;;;;;1.90;1.80;;;11.30;81.70;;;;;;5014515;28;20448;-78
2022/04/27 04:00:03;;;;;;;1.80;1.70;;;11.30;81.90;;;;;;5017437;28;20459;-78
2022/04/27 04:02:30;;;;;;;2.10;2.00;;;11.30;81.90;;;;;;5018228;28;20472;-77
2022/04/27 04:04:56;;;;;;;1.80;1.70;;;11.40;81.90;;;;;;5018012;28;20440;-78
2022/04/27 04:07:23;;;;;;;1.90;1.80;;;11.40;81.60;;;;;;5017882;28;20858;-78
2022/04/27 04:09:51;;;;;;;2.00;1.90;;;11.40;81.60;;;;;;5017789;28;20448;-78
2022/04/27 04:12:18;;;;;;;1.60;1.57;;;11.50;81.50;;;;;;5017559;28;20550;-78
2022/04/27 04:14:45;;;;;;;2.00;1.90;;;11.50;81.50;;;;;;5017556;28;20497;-78
2022/04/27 04:17:11;;;;;;;1.93;1.83;;;11.50;81.50;;;;;;5017533;28;20448;-78
2022/04/27 04:19:39;;;;;;;1.40;1.40;;;11.50;81.30;;;;;;5017693;28;20440;-78
2022/04/27 04:22:06;;;;;;;1.90;1.80;;;11.60;81.20;;;;;;5017258;28;20934;-78
2022/04/27 04:24:33;;;;;;;1.80;1.70;;;11.60;81.30;;;;;;5017650;28;20966;-77
2022/04/27 04:29:45;;;;;;;1.70;1.60;;;11.50;81.20;;;;;;5017867;28;20412;-77
2022/04/27 04:32:12;;;;;;;1.53;1.53;;;11.50;81.20;;;;;;5017598;28;20460;-77
2022/04/27 04:34:38;;;;;;;1.80;1.70;;;11.60;81.00;;;;;;5017820;28;20498;-77
2022/04/27 04:37:06;;;;;;;1.60;1.50;;;11.60;81.00;;;;;;5017562;28;20455;-76
2022/04/27 04:39:32;;;;;;;1.50;1.50;;;11.60;81.00;;;;;;5017114;28;20966;-77
2022/04/27 04:42:00;;;;;;;1.80;1.70;;;11.70;81.00;;;;;;5017498;28;20492;-78
2022/04/27 04:44:27;;;;;;;1.50;1.43;;;11.70;81.00;;;;;;5017104;28;20460;-74
2022/04/27 04:46:54;;;;;;;1.97;1.87;;;11.70;80.90;;;;;;5016980;28;20444;-77
2022/04/27 04:49:20;;;;;;;1.57;1.47;;;11.80;80.80;;;;;;5017291;28;20452;-77
2022/04/27 04:51:47;;;;;;;2.00;1.90;;;11.80;80.70;;;;;;5017187;28;20522;-77
2022/04/27 04:54:14;;;;;;;1.93;1.83;;;11.70;80.40;;;;;;5017308;28;20510;-77
2022/04/27 04:56:40;;;;;;;1.90;1.80;;;11.80;80.30;;;;;;5017166;28;20495;-77
2022/04/27 04:59:08;;;;;;;1.87;1.77;;;11.80;80.40;;;;;;5017315;28;20452;-77
2022/04/27 05:01:35;;;;;;;1.93;1.83;;;11.90;80.50;;;;;;5016721;28;20546;-77
2022/04/27 05:04:01;;;;;;;1.70;1.60;;;11.90;80.40;;;;;;5017457;28;20448;-77
2022/04/27 05:06:28;;;;;;;2.20;2.10;;;11.90;80.40;;;;;;5017012;28;20484;-77
2022/04/27 05:08:55;;;;;;;1.63;1.53;;;11.90;80.10;;;;;;5016981;28;20502;-77
2022/04/27 05:11:21;;;;;;;1.70;1.60;;;12.00;80.10;;;;;;5015863;28;20460;-77
2022/04/27 05:13:48;;;;;;;1.67;1.57;;;11.90;80.30;;;;;;5016902;28;20535;-77
2022/04/27 05:16:16;;;;;;;1.77;1.70;;;11.90;80.20;;;;;;5016433;28;20440;-77
2022/04/27 05:18:43;;;;;;;1.97;1.87;;;12.00;80.30;;;;;;5017156;28;20869;-75
2022/04/27 05:21:09;;;;;;;1.70;1.60;;;12.00;80.30;;;;;;5016659;28;20483;-75
2022/04/27 05:23:36;;;;;;;1.90;1.80;;;12.00;80.20;;;;;;5016809;28;20851;-75
2022/04/27 05:26:03;;;;;;;1.63;1.53;;;12.00;80.30;;;;;;5016917;28;20805;-75
2022/04/27 05:31:53;;;;;;;1.60;1.50;;;12.00;80.20;;;;;;5017195;28;20554;-75
2022/04/27 05:34:02;;;;;;;1.53;1.43;;;12.00;80.00;;;;;;5016207;28;20928;-75
2022/04/27 05:36:28;;;;;;;1.60;1.60;;;12.00;79.90;;;;;;5016664;28;20918;-75
2022/04/27 05:38:55;;;;;;;1.70;1.60;;;12.10;80.00;;;;;;5016386;28;20452;-75
2022/04/27 05:41:22;;;;;;;1.30;1.30;;;12.10;80.00;;;;;;5016087;28;20488;-75
2022/04/27 05:43:48;;;;;;;1.90;1.80;;;12.10;80.20;;;;;;5016112;28;20448;-75
2022/04/27 05:46:15;;;;;;;1.90;1.80;;;12.20;80.10;;;;;;5016226;28;20507;-75
2022/04/27 05:48:43;;;;;;;1.40;1.40;;;12.10;80.10;;;;;;5016045;28;20452;-75
2022/04/27 05:51:10;;;;;;;1.90;1.80;;;12.20;80.10;;;;;;5016072;28;20955;-75
2022/04/27 05:53:36;;;;;;;1.90;1.80;;;12.10;79.90;;;;;;5015987;28;20460;-75
2022/04/27 05:56:04;;;;;;;1.50;1.50;;;12.20;79.90;;;;;;5016204;28;20506;-75
2022/04/27 05:58:31;;;;;;;1.70;1.60;;;12.10;80.00;;;;;;5016269;28;20452;-75
2022/04/27 06:00:57;;;;;;;2.23;2.13;;;12.10;80.10;;;;;;5015477;28;20986;-75
2022/04/27 06:03:24;;;;;;;1.57;1.47;;;12.10;80.10;;;;;;5016255;28;20848;-75
2022/04/27 06:05:52;;;;;;;1.73;1.63;;;12.10;80.30;;;;;;5015716;28;20460;-75
2022/04/27 06:08:19;;;;;;;1.63;1.57;;;12.10;80.20;;;;;;5015653;28;20440;-75
2022/04/27 06:10:45;;;;;;;1.43;1.43;;;12.10;80.20;;;;;;5015424;28;21127;-76
2022/04/27 06:13:13;;;;;;;1.63;1.53;;;12.10;80.20;;;;;;5014881;28;20950;-75
2022/04/27 06:15:40;;;;;;;1.73;1.63;;;12.20;80.10;;;;;;5015061;28;20826;-74
2022/04/27 06:18:07;;;;;;;1.63;1.57;;;12.20;80.50;;;;;;5014812;28;20511;-75
2022/04/27 06:20:33;;;;;;;1.40;1.40;;;12.30;80.10;;;;;;5014865;28;20490;-74
2022/04/27 06:23:01;;;;;;;1.50;1.40;;;12.40;79.70;;;;;;5014849;28;20487;-76
2022/04/27 06:25:30;;;;;;;1.57;1.50;;;12.40;79.80;;;;;;5015123;28;20448;-75
2022/04/27 06:27:57;;;;;;;1.80;1.70;;;12.40;79.90;;;;;;5013540;28;21002;-75
2022/04/27 06:30:25;;;;;;;1.23;1.23;;;12.40;79.70;;;;;;5014257;28;20853;-74
2022/04/27 06:32:51;;;;;;;1.37;1.37;;;12.40;79.20;;;;;;5014817;28;20444;-75
2022/04/27 06:35:18;;;;;;;1.50;1.50;;;12.40;79.30;;;;;;5014841;28;20494;-75
2022/04/27 06:37:45;;;;;;;1.50;1.50;;;12.30;79.40;;;;;;5014578;28;20823;-75
2022/04/27 06:40:13;;;;;;;1.90;1.80;;;12.40;79.50;;;;;;5014548;28;20475;-76
2022/04/27 06:42:43;;;;;;;1.30;1.30;;;12.40;79.60;;;;;;5014383;28;20519;-76
2022/04/27 06:45:11;;;;;;;1.43;1.43;;;12.40;79.70;;;;;;5014537;28;20467;-76
2022/04/27 06:47:37;;;;;;;1.40;1.40;;;12.40;79.70;;;;;;5014498;28;20861;-75
2022/04/27 06:50:06;;;;;;;1.70;1.60;;;12.40;79.60;;;;;;5014611;28;20855;-74
2022/04/27 06:52:33;;;;;;;1.67;1.60;;;12.50;79.50;;;;;;5014551;28;20899;-76
2022/04/27 06:55:00;;;;;;;1.50;1.47;;;12.40;79.40;;;;;;5014681;28;20448;-75
2022/04/27 06:57:28;;;;;;;1.77;1.67;;;12.20;80.00;;;;;;5014275;28;20456;-76
2022/04/27 06:59:54;;;;;;;1.70;1.67;;;12.30;80.30;;;;;;5013909;28;20951;-75
2022/04/27 07:02:21;;;;;;;1.73;1.67;;;12.20;80.40;;;;;;5013742;28;20545;-75
2022/04/27 07:04:52;;;;;;;1.90;1.80;;;12.30;80.70;;;;;;5014450;28;20452;-75
2022/04/27 07:07:18;;;;;;;1.80;1.70;;;12.30;80.60;;;;;;5014311;28;20440;-75
2022/04/27 07:09:45;;;;;;;1.73;1.63;;;12.20;80.40;;;;;;5013756;28;20796;-76
2022/04/27 07:12:13;;;;;;;2.00;1.90;;;12.10;80.60;;;;;;5013929;28;20460;-74
2022/04/27 07:14:41;;;;;;;1.70;1.60;;;12.20;81.10;;;;;;5014270;28;20533;-76
2022/04/27 07:17:07;;;;;;;1.60;1.60;;;12.30;80.80;;;;;;5013963;28;20450;-75
2022/04/27 07:19:34;;;;;;;1.50;1.50;;;12.40;80.70;;;;;;5014018;28;20959;-76
2022/04/27 07:22:02;;;;;;;1.93;1.83;;;12.40;79.90;;;;;;5014012;28;20546;-76
2022/04/27 07:24:29;;;;;;;1.77;1.67;;;12.30;79.40;;;;;;5014099;28;20466;-76
2022/04/27 07:26:56;;;;;;;2.13;2.03;;;12.20;79.60;;;;;;5014116;28;20476;-76
2022/04/27 07:29:23;;;;;;;1.90;1.80;;;12.20;80.00;;;;;;5014124;28;20885;-76
2022/04/27 07:31:51;;;;;;;1.73;1.63;;;12.20;80.30;;;;;;5014044;28;20474;-76
2022/04/27 07:34:18;;;;;;;1.97;1.87;;;12.20;80.30;;;;;;5013406;28;20502;-75
2022/04/27 07:36:44;;;;;;;1.90;1.80;;;12.10;80.50;;;;;;5013944;28;20444;-76
2022/04/27 07:39:11;;;;;;;1.80;1.70;;;12.20;80.60;;;;;;5014939;28;20460;-75
2022/04/27 07:41:38;;;;;;;1.97;1.87;;;12.30;80.50;;;;;;5014823;28;20541;-75
2022/04/27 07:44:06;;;;;;;1.83;1.73;;;12.20;80.20;;;;;;5014718;28;20448;-75
2022/04/27 07:46:33;;;;;;;1.83;1.73;;;12.20;80.40;;;;;;5014855;28;20459;-75
2022/04/27 07:49:01;;;;;;;1.80;1.70;;;12.20;80.50;;;;;;5014610;28;20440;-75
2022/04/27 07:51:27;;;;;;;2.00;1.90;;;12.30;80.20;;;;;;5015136;28;21018;-75
2022/04/27 07:53:54;;;;;;;2.00;1.90;;;12.40;80.30;;;;;;5014577;28;20452;-75
2022/04/27 07:56:21;;;;;;;1.53;1.43;;;12.50;80.50;;;;;;5014808;28;20461;-75
2022/04/27 07:58:47;;;;;;;1.57;1.47;;;12.50;80.10;;;;;;5014311;28;20503;-75
2022/04/27 08:01:14;;;;;;;1.90;1.80;;;12.50;80.10;;;;;;5014025;28;20484;-75
2022/04/27 08:03:40;;;;;;;1.27;1.27;;;12.40;81.10;;;;;;5014280;28;20472;-75
2022/04/27 08:06:08;;;;;;;1.50;1.50;;;12.70;81.20;;;;;;5013641;28;20460;-76
2022/04/27 08:08:37;;;;;;;1.80;1.70;;;12.80;80.40;;;;;;5015333;28;20464;-75
2022/04/27 08:11:04;;;;;;;1.40;1.40;;;12.90;80.00;;;;;;5013156;28;20476;-73
2022/04/27 08:13:32;;;;;;;1.20;1.20;;;13.10;79.00;;;;;;5013665;28;20459;-75
2022/04/27 08:15:58;;;;;;;1.60;1.50;;;13.00;78.10;;;;;;5013378;28;20456;-75
2022/04/27 08:18:25;;;;;;;1.20;1.20;;;13.00;77.80;;;;;;5013886;28;20503;-76
2022/04/27 08:23:40;;;;;;;1.60;1.50;;;13.10;77.90;;;;;;5014503;28;20459;-76
2022/04/27 08:26:07;;;;;;;1.63;1.53;;;13.00;78.10;;;;;;5013499;28;20495;-76
2022/04/27 08:28:37;;;;;;;1.50;1.50;;;13.00;77.90;;;;;;5013567;28;20451;-75
2022/04/27 08:31:04;;;;;;;1.40;1.40;;;12.90;77.90;;;;;;5013504;28;20563;-75
2022/04/27 08:33:31;;;;;;;1.23;1.23;;;13.00;78.00;;;;;;5013100;28;20445;-75
2022/04/27 08:35:59;;;;;;;1.57;1.47;;;13.00;77.90;;;;;;5013053;28;20510;-75
2022/04/27 08:38:26;;;;;;;1.30;1.30;;;12.90;78.20;;;;;;5013419;28;20539;-75
2022/04/27 08:40:55;;;;;;;1.50;1.50;;;13.00;77.80;;;;;;5013590;28;20526;-75
2022/04/27 08:43:22;;;;;;;1.80;1.70;;;13.00;78.40;;;;;;5013292;28;20534;-76
2022/04/27 08:45:50;;;;;;;1.50;1.40;;;12.60;78.40;;;;;;5015724;28;20456;-76
2022/04/27 08:48:18;;;;;;;1.63;1.53;;;12.70;78.50;;;;;;5016657;28;21046;-75
2022/04/27 08:50:46;;;;;;;1.33;1.33;;;12.60;79.00;;;;;;5016630;28;20550;-76
2022/04/27 08:53:13;;;;;;;1.43;1.33;;;12.60;78.60;;;;;;5016900;28;20543;-76
2022/04/27 08:55:41;;;;;;;1.37;1.37;;;12.40;78.90;;;;;;5017152;28;20452;-75
2022/04/27 08:58:10;;;;;;;1.40;1.40;;;12.30;79.40;;;;;;5016957;28;20460;-75
2022/04/27 09:00:38;;;;;;;1.50;1.50;;;12.10;79.80;;;;;;5016721;28;20460;-75
2022/04/27 09:03:25;;;;;;;1.17;1.17;;;12.20;80.20;;;;;;5016794;28;20909;-76
2022/04/27 09:05:53;;;;;;;1.57;1.47;;;12.10;80.20;;;;;;5017350;28;20444;-76
2022/04/27 09:08:20;;;;;;;1.30;1.30;;;12.30;80.20;;;;;;5016755;28;20502;-75
2022/04/27 09:10:47;;;;;;;1.20;1.20;;;12.40;79.90;;;;;;5016498;28;20485;-75
2022/04/27 09:13:15;;;;;;;1.37;1.33;;;12.50;79.90;;;;;;5016162;28;20480;-76
2022/04/27 09:21:02;;;;;;;1.70;1.60;;;12.70;79.20;;;;;;5015217;28;20440;-68
2022/04/27 09:23:36;;;;;;;1.53;1.43;;;12.60;78.80;;;;;;5014808;28;20522;-68
2022/04/27 09:26:16;;;;;;;1.60;1.50;;;12.60;79.00;;;;;;5015057;28;20531;-68
2022/04/27 09:28:48;;;;;;;1.47;1.47;;;12.60;77.70;;;;;;5015360;28;20432;-68
2022/04/27 09:31:29;;;;;;;1.30;1.30;;;12.80;77.70;;;;;;5014779;28;20486;-67
2022/04/27 09:34:00;;;;;;;1.30;1.20;;;12.40;77.50;;;;;;5014641;28;20428;-67
2022/04/27 09:36:27;;;;;;;1.27;1.27;;;12.40;78.20;;;;;;5014672;28;20468;-67
2022/04/27 09:38:56;;;;;;;1.20;1.20;;;12.40;77.70;;;;;;5014116;28;20461;-67
2022/04/27 09:41:42;;;;;;;1.33;1.33;;;12.50;78.30;;;;;;5014506;28;20536;-68
2022/04/27 09:44:26;;;;;;;1.43;1.33;;;12.70;77.80;;;;;;5014138;28;20990;-69
2022/04/27 09:46:52;;;;;;;1.50;1.40;;;13.00;76.00;;;;;;5014419;28;20476;-70
2022/04/27 09:49:19;;;;;;;1.30;1.20;;;13.00;75.30;;;;;;5014206;28;20857;-69
2022/04/27 09:51:48;;;;;;;1.10;1.10;;;12.90;75.90;;;;;;5014040;28;20982;-69
2022/04/27 09:54:19;;;;;;;1.40;1.30;;;13.20;76.20;;;;;;5014431;28;20530;-69
2022/04/27 09:56:51;;;;;;;1.30;1.20;;;13.30;75.30;;;;;;5013424;28;20883;-69
2022/04/27 09:59:21;;;;;;;1.33;1.33;;;13.60;75.30;;;;;;5014636;28;20523;-69
2022/04/27 10:01:49;;;;;;;1.23;1.23;;;14.00;73.80;;;;;;5014413;28;20515;-69
2022/04/27 10:04:20;;;;;;;1.17;1.17;;;14.10;74.50;;;;;;5013845;28;20484;-70
2022/04/27 10:06:48;;;;;;;1.53;1.43;;;14.00;73.70;;;;;;5014024;28;20511;-69
2022/04/27 10:09:15;;;;;;;1.40;1.30;;;14.00;73.90;;;;;;5014239;28;20551;-70
2022/04/27 10:11:43;;;;;;;1.00;1.00;;;14.10;73.40;;;;;;5014143;28;20448;-70
2022/04/27 10:14:10;;;;;;;1.10;1.10;;;13.90;73.70;;;;;;5014253;28;20444;-69
2022/04/27 10:16:39;;;;;;;1.20;1.20;;;13.80;72.80;;;;;;5013660;28;20492;-70
2022/04/27 10:19:10;;;;;;;1.00;1.00;;;13.80;73.90;;;;;;5014005;28;20511;-69
2022/04/27 10:21:39;;;;;;;1.10;1.10;;;13.70;73.80;;;;;;5014237;28;20523;-70
2022/04/27 10:24:06;;;;;;;1.20;1.20;;;13.60;73.70;;;;;;5014055;28;20520;-69
2022/04/27 10:26:33;;;;;;;1.17;1.07;;;13.60;75.20;;;;;;5013904;28;20499;-69
2022/04/27 10:29:01;;;;;;;1.27;1.17;;;13.90;73.70;;;;;;5014121;28;20464;-70
2022/04/27 10:32:02;;;;;;;0.80;0.80;;;14.20;73.40;;;;;;5014314;28;20440;-70
2022/04/27 10:34:29;;;;;;;1.10;1.10;;;14.30;72.70;;;;;;5014606;28;20452;-70
2022/04/27 10:36:57;;;;;;;1.00;1.00;;;14.50;72.20;;;;;;5015012;28;20529;-69
2022/04/27 10:39:25;;;;;;;0.80;0.80;;;14.40;71.80;;;;;;5014884;28;20456;-70
2022/04/27 10:42:11;;;;;;;1.00;1.00;;;14.20;71.30;;;;;;5014518;28;20474;-69
2022/04/27 10:45:06;;;;;;;0.90;0.90;;;14.10;71.10;;;;;;5001729;28;20459;-70
2022/04/27 10:47:41;;;;;;;0.90;0.90;;;14.20;71.80;;;;;;5014296;28;20542;-71
2022/04/27 10:50:29;;;;;;;0.90;0.90;;;14.10;70.00;;;;;;5014540;28;20436;-70
2022/04/27 10:53:00;;;;;;;0.80;0.80;;;13.70;72.20;;;;;;5013354;28;20852;-69
2022/04/27 10:55:50;;;;;;;0.97;0.93;;;13.60;72.40;;;;;;5013526;28;20433;-70
2022/04/27 10:58:19;;;;;;;0.90;0.90;;;13.50;72.90;;;;;;5013337;28;20920;-69
2022/04/27 11:01:25;;;;;;;0.70;0.70;;;13.80;72.80;;;;;;5013853;28;20499;-69
2022/04/27 11:04:07;;;;;;;0.90;0.90;;;14.00;70.80;;;;;;5014346;28;20550;-70
2022/04/27 11:07:03;;;;;;;0.83;0.83;;;13.80;71.50;;;;;;5018084;28;20472;-70
2022/04/27 11:09:45;;;;;;;1.40;1.30;;;13.90;71.50;;;;;;5024430;28;20475;-69
2022/04/27 11:12:12;;;;;;;1.00;1.00;;;13.90;71.00;;;;;;5015483;28;20839;-69
2022/04/27 11:14:40;;;;;;;0.90;0.90;;;13.60;71.90;;;;;;5013965;28;20448;-70
2022/04/27 11:17:06;;;;;;;0.90;0.90;;;13.40;72.20;;;;;;5013409;28;20475;-69
2022/04/27 11:19:39;;;;;;;0.80;0.80;;;13.00;72.80;;;;;;5013736;28;20498;-69
2022/04/27 11:22:11;;;;;;;0.90;0.90;;;13.00;73.60;;;;;;5013823;28;20436;-69
2022/04/27 11:24:38;;;;;;;1.00;1.00;;;13.10;72.50;;;;;;5013971;28;20570;-69
2022/04/27 11:27:06;;;;;;;0.80;0.80;;;13.10;73.20;;;;;;5013690;28;20468;-69
2022/04/27 11:29:33;;;;;;;0.93;0.83;;;13.00;72.60;;;;;;5014078;28;20448;-70
2022/04/27 11:32:05;;;;;;;0.77;0.77;;;13.10;73.20;;;;;;5013310;28;20448;-70
2022/04/27 11:34:33;;;;;;;1.00;1.00;;;13.10;72.80;;;;;;5013393;28;20908;-70
2022/04/27 11:37:15;;;;;;;0.97;0.97;;;13.20;73.70;;;;;;5013443;28;20468;-70
2022/04/27 11:39:42;;;;;;;0.90;0.80;;;13.10;72.90;;;;;;5013365;28;20502;-67
2022/04/27 11:42:10;;;;;;;0.87;0.87;;;13.00;73.30;;;;;;5013562;28;20444;-69
2022/04/27 11:44:36;;;;;;;0.70;0.70;;;13.20;73.40;;;;;;5013084;28;21022;-70
2022/04/27 11:47:04;;;;;;;0.70;0.70;;;13.30;73.70;;;;;;5013071;28;20522;-69
2022/04/27 11:49:30;;;;;;;0.87;0.87;;;13.60;73.10;;;;;;5012911;28;20452;-69
2022/04/27 11:51:57;;;;;;;1.37;0.93;;;13.50;71.80;;;;;;5012541;28;20967;-70
2022/04/27 11:54:30;;;;;;;1.10;1.00;;;13.50;71.20;;;;;;5012447;28;20448;-69
2022/04/27 11:57:00;;;;;;;1.10;1.00;;;13.80;72.40;;;;;;5013276;28;20472;-71
2022/04/27 11:59:40;;;;;;;0.77;0.77;;;13.60;69.90;;;;;;5012809;28;20535;-69
2022/04/27 12:02:07;;;;;;;0.70;0.70;;;13.60;70.70;;;;;;5012772;28;20433;-69
2022/04/27 12:04:35;;;;;;;0.93;0.93;;;13.70;71.80;;;;;;5012782;28;20484;-69
2022/04/27 12:07:02;;;;;;;0.70;0.70;;;13.70;71.00;;;;;;5012790;28;20522;-69
2022/04/27 12:09:31;;;;;;;0.80;0.80;;;13.70;71.30;;;;;;5012851;28;20444;-70
2022/04/27 12:12:06;;;;;;;0.87;0.87;;;13.50;70.20;;;;;;5012350;28;20452;-70
2022/04/27 12:14:33;;;;;;;0.93;0.93;;;13.70;72.60;;;;;;5012772;28;20575;-70
2022/04/27 12:17:00;;;;;;;0.70;0.70;;;14.10;70.80;;;;;;5012407;28;20922;-70
2022/04/27 12:19:28;;;;;;;0.80;0.80;;;14.40;71.00;;;;;;5013101;28;20503;-70
2022/04/27 12:22:13;;;;;;;0.80;0.80;;;14.70;68.80;;;;;;5016550;28;20452;-67
2022/04/27 12:24:44;;;;;;;0.80;0.80;;;14.70;67.70;;;;;;5016482;28;20464;-69
2022/04/27 12:27:19;;;;;;;0.70;0.70;;;14.80;68.40;;;;;;5016291;28;20518;-69
2022/04/27 12:29:45;;;;;;;0.77;0.77;;;15.10;68.20;;;;;;5016432;28;20530;-68
2022/04/27 12:32:12;;;;;;;0.73;0.73;;;15.10;66.80;;;;;;5016172;28;20455;-68
2022/04/27 12:37:30;;;;;;;0.73;0.73;;;15.70;64.90;;;;;;4983446;28;20539;-68
2022/04/27 12:40:13;;;;;;;0.70;0.70;;;15.60;64.90;;;;;;5016475;28;20431;-69
2022/04/27 12:43:01;;;;;;;0.70;0.60;;;15.80;64.60;;;;;;5016131;28;20436;-70
2022/04/27 12:45:28;;;;;;;0.70;0.67;;;16.10;64.40;;;;;;5016208;28;20511;-70
2022/04/27 12:47:54;;;;;;;0.80;0.80;;;16.20;62.70;;;;;;5015546;28;20467;-69
2022/04/27 12:50:21;;;;;;;0.70;0.70;;;16.50;63.50;;;;;;5015690;28;20940;-68
2022/04/27 12:52:49;;;;;;;0.70;0.70;;;16.50;62.10;;;;;;5015954;28;20447;-69
2022/04/27 12:55:20;;;;;;;0.73;0.73;;;16.50;63.70;;;;;;5015836;28;20533;-68
2022/04/27 12:57:48;;;;;;;0.80;0.80;;;16.60;61.20;;;;;;5015973;28;20541;-69
2022/04/27 13:00:16;;;;;;;0.60;0.60;;;16.60;61.70;;;;;;5015764;28;20448;-69
2022/04/27 13:02:43;;;;;;;0.70;0.70;;;16.40;61.20;;;;;;5015755;28;20472;-69
2022/04/27 13:05:10;;;;;;;0.70;0.70;;;15.90;61.20;;;;;;5015627;28;20480;-69
2022/04/27 13:07:37;;;;;;;1.10;0.80;;;15.80;61.50;;;;;;5016498;28;20468;-70
2022/04/27 13:12:52;;;;;;;0.90;0.90;;;15.90;61.60;;;;;;5016537;28;20404;-69
2022/04/27 13:15:19;;;;;;;0.70;0.70;;;16.00;62.10;;;;;;5016420;28;20864;-70
2022/04/27 13:17:47;;;;;;;0.70;0.70;;;15.90;59.90;;;;;;5015810;28;20534;-70
2022/04/27 13:20:13;;;;;;;0.70;0.70;;;15.60;61.10;;;;;;5016552;28;20452;-69
2022/04/27 13:22:40;;;;;;;0.80;0.80;;;15.60;62.30;;;;;;5016233;28;20798;-69
2022/04/27 13:25:09;;;;;;;0.70;0.60;;;15.50;61.70;;;;;;5016073;28;20999;-69
2022/04/27 13:27:36;;;;;;;0.70;0.70;;;15.40;61.80;;;;;;5016089;28;20507;-69
2022/04/27 13:30:04;;;;;;;0.70;0.70;;;15.60;62.00;;;;;;5016231;28;20455;-69
2022/04/27 13:32:31;;;;;;;0.60;0.60;;;15.50;60.70;;;;;;5014731;28;20947;-69
2022/04/27 13:34:58;;;;;;;0.70;0.60;;;15.40;61.60;;;;;;5016037;28;20819;-68
2022/04/27 13:37:25;;;;;;;0.70;0.70;;;15.60;62.20;;;;;;5015968;28;20480;-70
2022/04/27 13:39:53;;;;;;;0.70;0.70;;;15.60;61.70;;;;;;5015777;28;20929;-69
2022/04/27 13:42:19;;;;;;;0.70;0.60;;;15.70;61.10;;;;;;5015891;28;20448;-69
2022/04/27 13:44:46;;;;;;;0.70;0.70;;;15.70;60.00;;;;;;5015653;28;20480;-68
2022/04/27 13:47:14;;;;;;;0.60;0.60;;;15.70;59.70;;;;;;5015534;28;20967;-69
2022/04/27 13:49:41;;;;;;;0.80;0.70;;;15.60;59.60;;;;;;5015371;28;20448;-70
2022/04/27 13:52:08;;;;;;;0.70;0.70;;;15.60;61.00;;;;;;5014881;28;20871;-69
2022/04/27 13:54:34;;;;;;;0.80;0.80;;;15.60;61.10;;;;;;5015220;28;20846;-69
2022/04/27 13:57:01;;;;;;;0.70;0.67;;;15.40;61.50;;;;;;5014616;28;20468;-68
2022/04/27 13:59:28;;;;;;;0.70;0.60;;;15.40;62.10;;;;;;5014188;28;20522;-68
2022/04/27 14:01:55;;;;;;;0.70;0.63;;;15.40;60.60;;;;;;5014484;28;20500;-69
2022/04/27 14:04:23;;;;;;;0.80;0.80;;;15.60;61.00;;;;;;5013985;28;20480;-69
2022/04/27 14:06:50;;;;;;;0.80;0.60;;;15.60;61.70;;;;;;5014950;28;20477;-69
2022/04/27 14:09:16;;;;;;;0.60;0.53;;;15.50;61.10;;;;;;5014132;28;20876;-68
2022/04/27 14:14:28;;;;;;;0.70;0.70;;;15.20;62.70;;;;;;5014509;28;20439;-68
2022/04/27 14:19:41;;;;;;;0.80;0.80;;;15.30;64.40;;;;;;5014335;28;20412;-69
2022/04/27 14:22:07;;;;;;;0.70;0.70;;;15.30;64.90;;;;;;5014164;28;20448;-69
2022/04/27 14:24:34;;;;;;;0.70;0.70;;;15.40;64.40;;;;;;5013787;28;20995;-69
2022/04/27 14:27:01;;;;;;;0.90;0.90;;;15.60;64.80;;;;;;5013656;28;20503;-68
2022/04/27 14:29:27;;;;;;;0.80;0.80;;;15.70;64.30;;;;;;5013916;28;20459;-68
2022/04/27 14:31:58;;;;;;;0.80;0.80;;;15.80;62.90;;;;;;5013748;28;20866;-68
2022/04/27 14:34:25;;;;;;;0.73;0.73;;;15.90;63.10;;;;;;5014118;28;20835;-67
2022/04/27 14:36:53;;;;;;;1.57;0.70;;;16.00;63.40;;;;;;5013896;28;20818;-68
2022/04/27 14:39:19;;;;;;;0.73;0.73;;;16.00;63.50;;;;;;5013902;28;20448;-68
2022/04/27 14:41:46;;;;;;;0.70;0.70;;;16.10;63.50;;;;;;5013578;28;20939;-70
2022/04/27 14:44:13;;;;;;;0.80;0.80;;;16.50;63.10;;;;;;5013540;28;20546;-69
2022/04/27 14:46:40;;;;;;;0.80;0.80;;;16.90;62.10;;;;;;5013698;28;20468;-69
2022/04/27 14:49:07;;;;;;;0.70;0.70;;;17.20;61.00;;;;;;5013822;28;20495;-69
2022/04/27 14:51:34;;;;;;;0.63;0.60;;;17.50;60.50;;;;;;5013726;28;20448;-69
2022/04/27 14:54:02;;;;;;;0.70;0.70;;;17.70;60.80;;;;;;5013569;28;20444;-68
2022/04/27 14:56:29;;;;;;;1.00;0.90;;;17.90;59.10;;;;;;5013740;28;20533;-68
2022/04/27 14:58:56;;;;;;;0.70;0.60;;;18.10;58.90;;;;;;5014742;28;20501;-69
2022/04/27 15:01:23;;;;;;;0.70;0.60;;;18.40;58.90;;;;;;5013450;28;20499;-69
2022/04/27 15:03:50;;;;;;;0.70;0.70;;;19.10;57.60;;;;;;5013311;28;20483;-69
2022/04/27 15:06:16;;;;;;;0.70;0.70;;;19.80;55.00;;;;;;5013471;28;20534;-69
2022/04/27 15:08:43;;;;;;;0.70;0.70;;;20.60;53.20;;;;;;5013207;28;20886;-69
2022/04/27 15:11:11;;;;;;;0.70;0.70;;;21.50;51.30;;;;;;5013418;28;20452;-69
2022/04/27 15:13:38;;;;;;;0.70;0.70;;;22.10;50.50;;;;;;5013367;28;20498;-70
2022/04/27 15:16:05;;;;;;;0.70;0.70;;;23.40;47.60;;;;;;5014611;28;20482;-68
2022/04/27 15:18:32;;;;;;;0.70;0.70;;;24.20;45.90;;;;;;5013074;28;20483;-68
2022/04/27 15:23:43;;;;;;;0.80;0.70;;;24.90;44.50;;;;;;5013398;28;20496;-69
2022/04/27 15:26:11;;;;;;;0.60;0.60;;;25.40;43.70;;;;;;5012792;28;20475;-69
2022/04/27 15:28:37;;;;;;;0.60;0.60;;;25.50;42.30;;;;;;5013183;28;20452;-70
2022/04/27 15:31:04;;;;;;;0.70;0.63;;;25.10;43.20;;;;;;5013056;28;20498;-69
2022/04/27 15:33:32;;;;;;;1.10;0.70;;;23.70;42.80;;;;;;5013324;28;20451;-69
2022/04/27 15:35:58;;;;;;;0.60;0.60;;;22.20;45.30;;;;;;5013510;28;20471;-69
2022/04/27 15:38:25;;;;;;;0.80;0.70;;;21.70;47.40;;;;;;5013152;28;20513;-69
2022/04/27 15:40:52;;;;;;;0.60;0.60;;;21.50;49.10;;;;;;5013099;28;20506;-70
2022/04/27 15:43:21;;;;;;;0.70;0.60;;;21.00;49.60;;;;;;5012860;28;20892;-68
2022/04/27 15:45:48;;;;;;;0.70;0.70;;;20.10;51.80;;;;;;5012499;28;20995;-70
2022/04/27 15:48:14;;;;;;;0.70;0.70;;;19.00;53.40;;;;;;5012777;28;20452;-69
2022/04/27 15:50:41;;;;;;;0.63;0.60;;;18.20;52.80;;;;;;5012990;28;20494;-68
2022/04/27 15:53:09;;;;;;;0.70;0.70;;;17.50;53.80;;;;;;5012842;28;20452;-68
2022/04/27 15:55:35;;;;;;;0.70;0.60;;;17.00;55.20;;;;;;5015012;28;20456;-68
2022/04/27 15:58:02;;;;;;;0.63;0.60;;;16.60;57.30;;;;;;5016762;28;20514;-68
2022/04/27 16:00:30;;;;;;;0.67;0.60;;;16.60;57.60;;;;;;5016833;28;20448;-68
2022/04/27 16:02:57;;;;;;;0.70;0.70;;;16.60;58.70;;;;;;5017047;28;20456;-70
2022/04/27 16:05:24;;;;;;;0.90;0.90;;;16.50;60.60;;;;;;5016802;28;20494;-69
2022/04/27 16:07:52;;;;;;;0.70;0.70;;;16.60;60.20;;;;;;5016813;28;20595;-68
2022/04/27 16:10:19;;;;;;;0.70;0.70;;;16.70;60.30;;;;;;5016967;28;20459;-68
2022/04/27 16:12:46;;;;;;;0.80;0.80;;;16.60;60.40;;;;;;5016801;28;20507;-68
2022/04/27 16:15:13;;;;;;;0.70;0.70;;;16.60;60.60;;;;;;5016499;28;20943;-69
2022/04/27 16:17:41;;;;;;;0.63;0.60;;;16.60;60.20;;;;;;5016337;28;20488;-69
2022/04/27 16:20:09;;;;;;;0.80;0.80;;;16.50;60.80;;;;;;5016511;28;20498;-68
2022/04/27 16:25:19;;;;;;;0.87;0.87;;;16.60;60.70;;;;;;5016698;28;20455;-68